Time;durP1;ratioP1;P1;durP2;ratioP2;P2;SDS_P1;SDS_P2;PMS_P1;PMS_P2;Temp;Humidity;BMP_temperature;BMP_pressure;BME280_temperature;BME280_humidity;BME280_pressure;Samples;Min_cycle;Max_cycle;Signal;HPM_P1;HPM_P2
2022/05/22 00:00:16;;;;;;;;;;;27.10;44.10;;;;;;660572;30;897;-89
2022/05/22 00:00:37;;;;;;;;;;;27.10;43.90;;;;;;657973;30;1488;-90
2022/05/22 00:00:58;;;;;;;;;;;27.10;44.10;;;;;;655388;30;1208;-89
2022/05/22 00:01:19;;;;;;;;;;;27.10;44.30;;;;;;653640;30;1133;-93
2022/05/22 00:01:41;;;;;;;;;;;27.10;44.30;;;;;;655633;30;893;-90
2022/05/22 00:02:02;;;;;;;;;;;27.10;43.80;;;;;;655546;30;1108;-91
2022/05/22 00:02:23;;;;;;;;;;;27.10;43.70;;;;;;656154;30;1094;-90
2022/05/22 00:02:44;;;;;;;;;;;27.10;43.80;;;;;;656090;30;1214;-89
2022/05/22 00:03:04;;;;;;;;;;;27.10;43.80;;;;;;657271;30;838;-90
2022/05/22 00:03:25;;;;;;;;;;;27.10;44.80;;;;;;657938;30;1345;-88
2022/05/22 00:03:46;;;;;;;;;;;27.10;43.80;;;;;;657943;30;1190;-89
2022/05/22 00:04:07;;;;;;;;;;;27.00;43.90;;;;;;657543;30;1179;-88
2022/05/22 00:04:27;;;;;;;;;;;27.00;43.50;;;;;;658371;30;799;-90
2022/05/22 00:04:48;;;;;;;;;;;27.00;44.30;;;;;;660146;30;1455;-90
2022/05/22 00:05:10;;;;;;;;;;;27.10;44.00;;;;;;660527;30;872;-89
2022/05/22 00:05:31;;;;;;;;;;;28.30;45.10;;;;;;660279;30;1365;-91
2022/05/22 00:05:51;;;;;;;;;;;27.00;43.90;;;;;;660419;30;1401;-89
2022/05/22 00:06:12;;;;;;;;;;;27.10;43.90;;;;;;660540;30;1347;-89
2022/05/22 00:06:32;;;;;;;;;;;27.10;44.10;;;;;;659944;30;1265;-90
2022/05/22 00:06:54;;;;;;;;;;;27.10;44.50;;;;;;657432;30;1302;-91
2022/05/22 00:07:15;;;;;;;;;;;27.10;44.60;;;;;;660037;30;1310;-91
2022/05/22 00:07:35;;;;;;;;;;;27.00;44.30;;;;;;657496;30;1353;-88
2022/05/22 00:07:56;;;;;;;;;;;27.00;44.30;;;;;;655909;30;1219;-92
2022/05/22 00:08:17;;;;;;;;;;;27.10;44.70;;;;;;658033;30;1276;-92
2022/05/22 00:08:38;;;;;;;;;;;27.00;44.90;;;;;;658162;30;604;-89
2022/05/22 00:08:59;;;;;;;;;;;27.00;44.40;;;;;;657474;30;1199;-86
2022/05/22 00:09:19;;;;;;;;;;;27.00;44.60;;;;;;657626;30;1286;-91
2022/05/22 00:09:40;;;;;;;;;;;27.00;45.30;;;;;;658270;30;1304;-90
2022/05/22 00:10:01;;;;;;;;;;;27.00;45.40;;;;;;659929;30;1320;-89
2022/05/22 00:10:21;;;;;;;;;;;27.00;45.10;;;;;;657960;30;1206;-85
2022/05/22 00:10:42;;;;;;;;;;;27.00;45.40;;;;;;657887;30;1185;-88
2022/05/22 00:11:02;;;;;;;;;;;27.00;45.50;;;;;;657903;30;825;-88
2022/05/22 00:11:23;;;;;;;;;;;27.00;45.50;;;;;;657999;30;782;-89
2022/05/22 00:11:44;;;;;;;;;;;27.00;45.40;;;;;;658330;30;822;-89
2022/05/22 00:12:05;;;;;;;;;;;27.00;46.10;;;;;;660283;30;1174;-89
2022/05/22 00:12:26;;;;;;;;;;;27.00;45.60;;;;;;660841;29;1261;-90
2022/05/22 00:12:46;;;;;;;;;;;27.00;46.10;;;;;;660433;30;1205;-91
2022/05/22 00:13:07;;;;;;;;;;;27.00;45.60;;;;;;660466;30;1312;-91
2022/05/22 00:13:27;;;;;;;;;;;27.00;45.50;;;;;;660444;30;727;-90
2022/05/22 00:13:48;;;;;;;;;;;27.00;45.40;;;;;;660129;30;916;-86
2022/05/22 00:14:12;;;;;;;;;;;27.00;45.50;;;;;;658083;30;1426;-90
2022/05/22 00:14:33;;;;;;;;;;;27.00;45.50;;;;;;658461;30;1325;-91
2022/05/22 00:14:54;;;;;;;;;;;27.00;45.60;;;;;;660446;29;1256;-91
2022/05/22 00:15:16;;;;;;;;;;;27.00;45.60;;;;;;662867;29;1188;-89
2022/05/22 00:16:36;;;;;;;;;;;27.00;45.10;;;;;;662822;29;1233;-90
2022/05/22 00:16:56;;;;;;;;;;;27.00;45.50;;;;;;660402;30;636;-90
2022/05/22 00:17:17;;;;;;;;;;;27.00;45.60;;;;;;660538;30;1265;-90
2022/05/22 00:17:38;;;;;;;;;;;27.00;45.80;;;;;;662867;29;908;-88
2022/05/22 00:17:58;;;;;;;;;;;27.00;45.90;;;;;;662847;29;1250;-89
2022/05/22 00:18:19;;;;;;;;;;;27.00;46.60;;;;;;663073;29;881;-91
2022/05/22 00:18:39;;;;;;;;;;;27.00;46.00;;;;;;662813;29;1465;-90
2022/05/22 00:19:00;;;;;;;;;;;27.00;45.90;;;;;;662839;29;1111;-89
2022/05/22 00:19:24;;;;;;;;;;;27.00;45.60;;;;;;663017;29;881;-89
2022/05/22 00:19:45;;;;;;;;;;;27.00;45.60;;;;;;662158;29;1289;-89
2022/05/22 00:20:06;;;;;;;;;;;27.00;45.60;;;;;;660338;30;834;-90
2022/05/22 00:20:26;;;;;;;;;;;27.00;45.60;;;;;;660492;30;972;-89
2022/05/22 00:20:47;;;;;;;;;;;27.00;45.70;;;;;;660488;30;1343;-89
2022/05/22 00:21:07;;;;;;;;;;;27.00;45.50;;;;;;660507;30;940;-90
2022/05/22 00:21:28;;;;;;;;;;;27.00;45.80;;;;;;660643;29;865;-91
2022/05/22 00:21:49;;;;;;;;;;;27.00;45.80;;;;;;663055;29;857;-89
2022/05/22 00:22:09;;;;;;;;;;;27.00;45.60;;;;;;662239;29;1231;-88
2022/05/22 00:22:31;;;;;;;;;;;27.00;45.90;;;;;;662954;29;1236;-88
2022/05/22 00:22:51;;;;;;;;;;;27.00;45.90;;;;;;662880;29;845;-88
2022/05/22 00:23:12;;;;;;;;;;;27.00;45.90;;;;;;662798;29;1273;-89
2022/05/22 00:23:33;;;;;;;;;;;27.00;45.80;;;;;;662628;29;1249;-90
2022/05/22 00:23:53;;;;;;;;;;;27.00;45.80;;;;;;662510;29;1187;-89
2022/05/22 00:24:15;;;;;;;;;;;27.00;45.90;;;;;;660338;30;873;-89
2022/05/22 00:24:35;;;;;;;;;;;27.00;45.80;;;;;;660416;30;742;-88
2022/05/22 00:24:57;;;;;;;;;;;26.90;45.80;;;;;;660287;30;901;-89
2022/05/22 00:25:17;;;;;;;;;;;27.00;46.10;;;;;;659982;30;1222;-90
2022/05/22 00:25:38;;;;;;;;;;;27.00;46.40;;;;;;660786;29;529;-90
2022/05/22 00:25:59;;;;;;;;;;;27.00;46.30;;;;;;662841;29;1305;-91
2022/05/22 00:26:19;;;;;;;;;;;26.90;46.10;;;;;;662999;29;947;-90
2022/05/22 00:26:40;;;;;;;;;;;27.00;46.30;;;;;;662731;29;1428;-92
2022/05/22 00:27:02;;;;;;;;;;;27.00;46.20;;;;;;662901;29;881;-91
2022/05/22 00:27:22;;;;;;;;;;;27.00;46.00;;;;;;662875;29;1234;-90
2022/05/22 00:27:43;;;;;;;;;;;26.90;46.20;;;;;;662508;29;798;-88
2022/05/22 00:28:03;;;;;;;;;;;27.00;46.00;;;;;;660376;30;925;-88
2022/05/22 00:28:24;;;;;;;;;;;27.00;46.30;;;;;;660589;30;825;-89
2022/05/22 00:28:45;;;;;;;;;;;26.90;46.40;;;;;;660452;30;858;-90
2022/05/22 00:29:06;;;;;;;;;;;27.00;45.90;;;;;;660421;30;806;-90
2022/05/22 00:29:26;;;;;;;;;;;27.00;46.00;;;;;;662692;29;1436;-90
2022/05/22 00:29:47;;;;;;;;;;;27.00;46.70;;;;;;662977;29;841;-90
2022/05/22 00:30:09;;;;;;;;;;;26.90;46.50;;;;;;662835;29;1297;-89
2022/05/22 00:30:29;;;;;;;;;;;26.90;45.70;;;;;;662912;29;810;-90
2022/05/22 00:30:50;;;;;;;;;;;27.00;46.00;;;;;;662462;29;1321;-91
2022/05/22 00:31:10;;;;;;;;;;;27.00;46.20;;;;;;662522;29;944;-90
2022/05/22 00:31:31;;;;;;;;;;;27.00;46.20;;;;;;660343;30;872;-91
2022/05/22 00:31:52;;;;;;;;;;;26.90;45.90;;;;;;660048;30;973;-91
2022/05/22 00:32:12;;;;;;;;;;;27.00;46.30;;;;;;660439;30;825;-90
2022/05/22 00:32:33;;;;;;;;;;;26.90;45.90;;;;;;660356;30;876;-92
2022/05/22 00:32:53;;;;;;;;;;;26.90;45.90;;;;;;660514;30;885;-87
2022/05/22 00:33:14;;;;;;;;;;;27.00;46.00;;;;;;660376;30;798;-85
2022/05/22 00:33:34;;;;;;;;;;;26.90;47.00;;;;;;660340;30;794;-88
2022/05/22 00:33:55;;;;;;;;;;;26.90;45.90;;;;;;662767;29;1233;-85
2022/05/22 00:34:16;;;;;;;;;;;26.90;46.50;;;;;;662855;29;1112;-92
2022/05/22 00:34:38;;;;;;;;;;;26.90;46.10;;;;;;662902;29;872;-88
2022/05/22 00:34:59;;;;;;;;;;;27.00;45.90;;;;;;662829;29;884;-89
2022/05/22 00:35:20;;;;;;;;;;;26.90;47.00;;;;;;662704;29;1173;-90
2022/05/22 00:35:40;;;;;;;;;;;26.90;46.00;;;;;;662964;29;773;-89
2022/05/22 00:36:01;;;;;;;;;;;26.90;45.60;;;;;;662289;29;908;-86
2022/05/22 00:36:22;;;;;;;;;;;26.90;46.30;;;;;;660604;30;809;-86
2022/05/22 00:36:42;;;;;;;;;;;26.90;45.20;;;;;;662706;29;1958;-89
2022/05/22 00:37:04;;;;;;;;;;;27.00;45.30;;;;;;662900;29;873;-89
2022/05/22 00:37:29;;;;;;;;;;;26.90;45.40;;;;;;662938;29;1284;-87
2022/05/22 00:37:49;;;;;;;;;;;26.90;45.50;;;;;;663014;29;1274;-90
2022/05/22 00:38:10;;;;;;;;;;;26.90;45.40;;;;;;662915;29;861;-87
2022/05/22 00:38:31;;;;;;;;;;;26.90;45.70;;;;;;662099;29;983;-88
2022/05/22 00:38:51;;;;;;;;;;;26.90;45.50;;;;;;660540;30;841;-87
2022/05/22 00:39:12;;;;;;;;;;;26.90;45.80;;;;;;661408;29;874;-90
2022/05/22 00:39:33;;;;;;;;;;;26.90;46.90;;;;;;662684;29;1458;-89
2022/05/22 00:39:54;;;;;;;;;;;26.90;45.80;;;;;;663015;29;1395;-90
2022/05/22 00:40:14;;;;;;;;;;;26.90;45.50;;;;;;663118;29;804;-90
2022/05/22 00:40:35;;;;;;;;;;;26.90;44.50;;;;;;662931;29;1229;-90
2022/05/22 00:40:56;;;;;;;;;;;26.90;44.40;;;;;;663389;29;1219;-87
2022/05/22 00:41:17;;;;;;;;;;;26.90;44.60;;;;;;663982;29;1137;-86
2022/05/22 00:41:38;;;;;;;;;;;26.90;44.80;;;;;;661579;30;1264;-87
2022/05/22 00:41:58;;;;;;;;;;;26.90;44.60;;;;;;662159;30;884;-89
2022/05/22 00:42:20;;;;;;;;;;;26.90;45.10;;;;;;658949;30;1198;-91
2022/05/22 00:42:43;;;;;;;;;;;26.90;45.10;;;;;;658254;30;935;-88
2022/05/22 00:43:03;;;;;;;;;;;26.90;45.20;;;;;;656917;30;1227;-87
2022/05/22 00:43:24;;;;;;;;;;;26.90;45.40;;;;;;658796;30;984;-88
2022/05/22 00:43:46;;;;;;;;;;;26.90;45.80;;;;;;658552;30;1131;-88
2022/05/22 00:44:07;;;;;;;;;;;26.90;44.80;;;;;;659646;30;1097;-87
2022/05/22 00:44:28;;;;;;;;;;;26.90;44.70;;;;;;658636;30;1087;-86
2022/05/22 00:44:48;;;;;;;;;;;26.90;47.30;;;;;;659172;30;775;-86
2022/05/22 00:45:09;;;;;;;;;;;26.90;45.50;;;;;;658891;30;1181;-87
2022/05/22 00:45:30;;;;;;;;;;;26.90;45.90;;;;;;658617;30;1335;-87
2022/05/22 00:45:50;;;;;;;;;;;26.90;45.40;;;;;;658541;30;1329;-89
2022/05/22 00:46:13;;;;;;;;;;;26.90;45.90;;;;;;658984;30;853;-85
2022/05/22 00:46:34;;;;;;;;;;;26.90;45.10;;;;;;658316;30;1210;-86
2022/05/22 00:46:54;;;;;;;;;;;26.90;46.20;;;;;;658957;30;1135;-86
2022/05/22 00:47:15;;;;;;;;;;;26.90;45.60;;;;;;659257;30;754;-88
2022/05/22 00:47:35;;;;;;;;;;;26.90;45.10;;;;;;661230;30;1314;-85
2022/05/22 00:47:56;;;;;;;;;;;26.90;45.90;;;;;;661476;30;1261;-85
2022/05/22 00:48:16;;;;;;;;;;;26.90;47.30;;;;;;661541;30;1190;-87
2022/05/22 00:48:38;;;;;;;;;;;26.90;46.60;;;;;;658708;30;830;-85
2022/05/22 00:49:05;;;;;;;;;;;26.90;45.90;;;;;;656362;30;1074;-88
2022/05/22 00:49:27;;;;;;;;;;;26.90;45.60;;;;;;657550;30;1191;-85
2022/05/22 00:49:48;;;;;;;;;;;26.90;45.10;;;;;;659145;30;1187;-86
2022/05/22 00:50:09;;;;;;;;;;;26.90;45.30;;;;;;659351;30;962;-85
2022/05/22 00:50:29;;;;;;;;;;;26.90;45.40;;;;;;660592;30;1007;-86
2022/05/22 00:50:51;;;;;;;;;;;26.90;45.50;;;;;;661574;30;1198;-88
2022/05/22 00:51:14;;;;;;;;;;;26.90;45.50;;;;;;660315;30;828;-91
2022/05/22 00:51:35;;;;;;;;;;;26.90;45.00;;;;;;661031;29;1195;-86
2022/05/22 00:51:59;;;;;;;;;;;26.90;45.50;;;;;;662964;29;808;-91
2022/05/22 00:53:19;;;;;;;;;;;26.90;44.90;;;;;;660402;30;1301;-87
2022/05/22 00:53:41;;;;;;;;;;;26.90;44.90;;;;;;660412;30;1011;-87
2022/05/22 00:54:04;;;;;;;;;;;26.90;44.80;;;;;;662644;29;1296;-91
2022/05/22 00:54:27;;;;;;;;;;;26.90;44.80;;;;;;662923;29;841;-87
2022/05/22 00:55:06;;;;;;;;;;;26.90;44.60;;;;;;662898;29;789;-84
2022/05/22 00:55:29;;;;;;;;;;;26.90;44.60;;;;;;662838;29;826;-88
2022/05/22 00:55:50;;;;;;;;;;;26.90;44.70;;;;;;662189;29;941;-86
2022/05/22 00:56:12;;;;;;;;;;;26.90;44.80;;;;;;660539;30;774;-86
2022/05/22 00:56:39;;;;;;;;;;;26.90;44.80;;;;;;662646;29;1907;-90
2022/05/22 00:57:05;;;;;;;;;;;26.90;44.60;;;;;;662980;29;769;-86
2022/05/22 00:57:32;;;;;;;;;;;26.90;44.60;;;;;;662795;29;817;-86
2022/05/22 00:57:55;;;;;;;;;;;26.90;44.70;;;;;;662845;29;1173;-84
2022/05/22 00:58:22;;;;;;;;;;;26.90;44.60;;;;;;662705;29;1245;-85
2022/05/22 00:58:44;;;;;;;;;;;26.90;44.60;;;;;;660384;30;876;-85
2022/05/22 00:59:07;;;;;;;;;;;26.90;44.60;;;;;;660389;30;892;-85
2022/05/22 00:59:32;;;;;;;;;;;26.90;44.60;;;;;;660235;30;1587;-86
2022/05/22 00:59:58;;;;;;;;;;;26.90;44.60;;;;;;660488;30;810;-86
2022/05/22 01:00:21;;;;;;;;;;;26.90;44.60;;;;;;660344;30;1097;-88
2022/05/22 01:00:42;;;;;;;;;;;26.90;44.60;;;;;;660369;30;880;-88
2022/05/22 01:01:03;;;;;;;;;;;26.90;44.60;;;;;;658142;30;1120;-91
2022/05/22 01:01:24;;;;;;;;;;;26.90;44.60;;;;;;660411;30;1203;-87
2022/05/22 01:01:45;;;;;;;;;;;26.90;44.80;;;;;;661423;30;825;-84
2022/05/22 01:02:05;;;;;;;;;;;26.90;44.70;;;;;;662944;30;908;-83
2022/05/22 01:02:27;;;;;;;;;;;26.90;44.70;;;;;;663040;30;1039;-85
2022/05/22 01:03:27;;;;;;;;;;;27.00;44.80;;;;;;663622;30;793;-83
2022/05/22 01:03:48;;;;;;;;;;;26.90;44.60;;;;;;665692;29;1357;-85
2022/05/22 01:04:14;;;;;;;;;;;27.00;44.80;;;;;;665614;29;1345;-85
2022/05/22 01:04:35;;;;;;;;;;;26.90;44.80;;;;;;665429;29;1007;-84
2022/05/22 01:04:56;;;;;;;;;;;27.00;44.80;;;;;;665319;29;1019;-83
2022/05/22 01:05:17;;;;;;;;;;;27.00;44.80;;;;;;665846;29;1036;-82
2022/05/22 01:05:37;;;;;;;;;;;27.00;44.80;;;;;;664685;29;1320;-83
2022/05/22 01:06:06;;;;;;;;;;;27.00;45.10;;;;;;663288;29;1070;-83
2022/05/22 01:06:27;;;;;;;;;;;27.00;44.80;;;;;;663082;29;916;-83
2022/05/22 01:06:49;;;;;;;;;;;27.00;44.90;;;;;;663068;29;856;-82
2022/05/22 01:07:32;;;;;;;;;;;27.00;44.90;;;;;;663293;29;866;-84
2022/05/22 01:07:52;;;;;;;;;;;27.00;45.00;;;;;;663363;29;1233;-83
2022/05/22 01:08:16;;;;;;;;;;;27.00;45.20;;;;;;663348;30;904;-84
2022/05/22 01:08:40;;;;;;;;;;;27.00;45.30;;;;;;663211;29;994;-83
2022/05/22 01:09:01;;;;;;;;;;;27.00;45.30;;;;;;663267;30;810;-84
2022/05/22 01:09:21;;;;;;;;;;;27.00;45.70;;;;;;664934;29;1203;-86
2022/05/22 01:09:42;;;;;;;;;;;27.00;45.70;;;;;;665272;29;1035;-84
2022/05/22 01:10:07;;;;;;;;;;;27.00;45.70;;;;;;665589;29;1101;-83
2022/05/22 01:10:54;;;;;;;;;;;27.00;45.80;;;;;;665383;29;943;-83
2022/05/22 01:11:19;;;;;;;;;;;27.00;46.10;;;;;;655298;30;1306;-83
2022/05/22 01:11:40;;;;;;;;;;;27.00;46.10;;;;;;655161;30;1482;-87
2022/05/22 01:12:04;;;;;;;;;;;27.00;46.00;;;;;;655737;30;1012;-86
2022/05/22 01:12:25;;;;;;;;;;;27.00;46.40;;;;;;655524;30;960;-85
2022/05/22 01:12:46;;;;;;;;;;;27.00;46.20;;;;;;655242;30;1055;-83
2022/05/22 01:13:07;;;;;;;;;;;27.00;46.40;;;;;;655051;30;1064;-81
2022/05/22 01:13:31;;;;;;;;;;;27.00;46.50;;;;;;655518;30;1004;-89
2022/05/22 01:14:18;;;;;;;;;;;27.00;46.30;;;;;;655874;30;1291;-85
2022/05/22 01:14:39;;;;;;;;;;;27.00;46.60;;;;;;652185;30;1088;-84
2022/05/22 01:15:00;;;;;;;;;;;27.00;46.40;;;;;;653180;30;1353;-90
2022/05/22 01:15:21;;;;;;;;;;;27.00;46.50;;;;;;653156;30;1098;-88
2022/05/22 01:15:41;;;;;;;;;;;27.00;46.40;;;;;;654453;30;771;-82
2022/05/22 01:16:03;;;;;;;;;;;27.00;46.30;;;;;;655193;30;1040;-90
2022/05/22 01:16:25;;;;;;;;;;;27.00;46.40;;;;;;655012;30;1485;-87
2022/05/22 01:16:46;;;;;;;;;;;27.00;47.10;;;;;;654127;30;1888;-85
2022/05/22 01:17:09;;;;;;;;;;;27.00;48.00;;;;;;654629;30;1412;-89
2022/05/22 01:17:31;;;;;;;;;;;27.00;47.30;;;;;;655260;30;1012;-86
2022/05/22 01:17:53;;;;;;;;;;;27.00;47.30;;;;;;655209;30;1203;-86
2022/05/22 01:18:14;;;;;;;;;;;27.00;47.30;;;;;;655394;30;1118;-89
2022/05/22 01:18:46;;;;;;;;;;;27.00;47.60;;;;;;654910;30;775;-86
2022/05/22 01:19:10;;;;;;;;;;;27.00;47.10;;;;;;654781;30;1071;-91
2022/05/22 01:19:31;;;;;;;;;;;27.00;47.10;;;;;;654721;30;798;-87
2022/05/22 01:19:55;;;;;;;;;;;27.00;47.40;;;;;;654647;30;1123;-90
2022/05/22 01:20:16;;;;;;;;;;;27.00;47.10;;;;;;654047;30;1094;-86
2022/05/22 01:20:36;;;;;;;;;;;27.00;47.60;;;;;;654277;30;993;-86
2022/05/22 01:20:57;;;;;;;;;;;27.00;47.90;;;;;;654653;30;921;-85
2022/05/22 01:21:19;;;;;;;;;;;27.00;47.90;;;;;;654669;30;1039;-86
2022/05/22 01:21:40;;;;;;;;;;;27.00;48.50;;;;;;654418;30;1309;-89
2022/05/22 01:22:03;;;;;;;;;;;27.00;48.30;;;;;;654920;30;996;-87
2022/05/22 01:22:26;;;;;;;;;;;27.00;48.80;;;;;;655424;30;814;-91
2022/05/22 01:22:47;;;;;;;;;;;27.00;48.70;;;;;;654932;30;877;-88
2022/05/22 01:23:07;;;;;;;;;;;27.00;48.80;;;;;;652757;30;1097;-88
2022/05/22 01:23:28;;;;;;;;;;;27.00;49.80;;;;;;652453;30;1406;-84
2022/05/22 01:23:49;;;;;;;;;;;27.10;50.20;;;;;;652749;30;1076;-84
2022/05/22 01:24:09;;;;;;;;;;;27.00;48.80;;;;;;652240;30;862;-86
2022/05/22 01:24:30;;;;;;;;;;;27.10;51.30;;;;;;652560;30;826;-88
2022/05/22 01:24:50;;;;;;;;;;;27.00;48.90;;;;;;652919;30;976;-87
2022/05/22 01:25:11;;;;;;;;;;;27.10;49.00;;;;;;654766;30;988;-89
2022/05/22 01:25:32;;;;;;;;;;;27.00;49.70;;;;;;653745;30;1307;-86
2022/05/22 01:25:52;;;;;;;;;;;27.00;48.20;;;;;;654229;30;1436;-85
2022/05/22 01:26:13;;;;;;;;;;;27.00;48.00;;;;;;653785;30;1385;-85
2022/05/22 01:26:34;;;;;;;;;;;27.00;47.20;;;;;;654749;30;1048;-85
2022/05/22 01:26:57;;;;;;;;;;;27.00;47.70;;;;;;654570;30;1211;-88
2022/05/22 01:27:19;;;;;;;;;;;27.00;48.40;;;;;;653821;30;1197;-90
2022/05/22 01:27:40;;;;;;;;;;;27.00;47.20;;;;;;650494;30;1101;-86
2022/05/22 01:28:02;;;;;;;;;;;27.00;48.20;;;;;;651139;30;846;-84
2022/05/22 01:28:22;;;;;;;;;;;27.00;47.10;;;;;;650524;30;827;-86
2022/05/22 01:28:43;;;;;;;;;;;27.00;47.90;;;;;;649472;30;1127;-90
2022/05/22 01:29:03;;;;;;;;;;;27.00;48.80;;;;;;650876;30;1208;-90
2022/05/22 01:29:24;;;;;;;;;;;27.00;48.60;;;;;;652867;30;847;-91
2022/05/22 01:29:44;;;;;;;;;;;27.00;48.30;;;;;;652732;30;1195;-89
2022/05/22 01:30:10;;;;;;;;;;;27.00;48.40;;;;;;652906;30;1129;-90
2022/05/22 01:30:30;;;;;;;;;;;27.00;48.10;;;;;;652742;30;1100;-90
2022/05/22 01:30:51;;;;;;;;;;;27.00;48.30;;;;;;652094;30;1311;-91
2022/05/22 01:31:12;;;;;;;;;;;27.00;49.20;;;;;;650275;30;886;-89
2022/05/22 01:31:32;;;;;;;;;;;27.00;49.10;;;;;;651122;30;1478;-90
2022/05/22 01:31:53;;;;;;;;;;;27.00;49.00;;;;;;652868;30;727;-89
2022/05/22 01:32:13;;;;;;;;;;;27.00;48.70;;;;;;650190;30;1361;-92
2022/05/22 01:32:34;;;;;;;;;;;27.00;49.10;;;;;;650340;30;873;-89
2022/05/22 01:32:55;;;;;;;;;;;27.00;48.90;;;;;;650330;30;845;-89
2022/05/22 01:33:15;;;;;;;;;;;24.70;48.00;;;;;;652732;30;1200;-88
2022/05/22 01:33:37;;;;;;;;;;;26.90;49.30;;;;;;650287;30;1320;-90
2022/05/22 01:33:58;;;;;;;;;;;27.00;48.90;;;;;;650328;30;1268;-87
2022/05/22 01:34:18;;;;;;;;;;;27.00;48.90;;;;;;650500;30;806;-86
2022/05/22 01:34:39;;;;;;;;;;;27.00;48.80;;;;;;650383;30;901;-87
2022/05/22 01:35:00;;;;;;;;;;;27.00;48.50;;;;;;650371;30;1013;-90
2022/05/22 01:35:21;;;;;;;;;;;27.00;48.30;;;;;;648256;30;1195;-90
2022/05/22 01:35:42;;;;;;;;;;;27.00;48.50;;;;;;647955;30;1385;-90
2022/05/22 01:36:03;;;;;;;;;;;26.90;50.60;;;;;;647786;30;1317;-87
2022/05/22 01:36:24;;;;;;;;;;;26.90;48.80;;;;;;647977;30;1305;-87
2022/05/22 01:36:44;;;;;;;;;;;27.00;49.60;;;;;;647988;30;1962;-88
2022/05/22 01:37:05;;;;;;;;;;;26.90;49.80;;;;;;648065;30;1317;-88
2022/05/22 01:37:26;;;;;;;;;;;26.90;48.70;;;;;;648132;30;1247;-91
2022/05/22 01:37:47;;;;;;;;;;;26.90;49.00;;;;;;650592;30;1406;-90
2022/05/22 01:38:08;;;;;;;;;;;27.00;48.40;;;;;;652359;30;1239;-90
2022/05/22 01:38:28;;;;;;;;;;;27.00;48.40;;;;;;650399;30;1201;-89
2022/05/22 01:38:49;;;;;;;;;;;27.00;50.00;;;;;;652662;30;1303;-91
2022/05/22 01:39:10;;;;;;;;;;;26.50;49.10;;;;;;652611;30;1407;-87
2022/05/22 01:39:31;;;;;;;;;;;26.90;49.20;;;;;;652555;30;1203;-87
2022/05/22 01:39:52;;;;;;;;;;;26.90;48.70;;;;;;652336;30;1278;-89
2022/05/22 01:40:13;;;;;;;;;;;26.90;49.10;;;;;;652588;30;1295;-89
2022/05/22 01:40:34;;;;;;;;;;;26.90;48.60;;;;;;652189;30;1304;-87
2022/05/22 01:40:55;;;;;;;;;;;26.90;49.80;;;;;;652766;30;1251;-91
2022/05/22 01:41:15;;;;;;;;;;;27.00;48.80;;;;;;652727;30;1161;-90
2022/05/22 01:41:36;;;;;;;;;;;27.00;48.80;;;;;;652551;30;1279;-89
2022/05/22 01:41:56;;;;;;;;;;;27.00;48.90;;;;;;652260;30;1228;-89
2022/05/22 01:42:17;;;;;;;;;;;27.00;49.80;;;;;;650854;30;1059;-87
2022/05/22 01:42:39;;;;;;;;;;;26.90;48.50;;;;;;652379;30;1216;-92
2022/05/22 01:42:59;;;;;;;;;;;26.90;48.20;;;;;;652673;30;1281;-92
2022/05/22 01:43:20;;;;;;;;;;;26.90;49.40;;;;;;650308;30;1227;-89
2022/05/22 01:43:41;;;;;;;;;;;27.00;49.00;;;;;;650286;30;783;-90
2022/05/22 01:44:02;;;;;;;;;;;26.90;49.10;;;;;;650397;30;1109;-86
2022/05/22 01:44:22;;;;;;;;;;;27.00;49.10;;;;;;649968;30;1312;-86
2022/05/22 01:44:43;;;;;;;;;;;26.90;48.30;;;;;;647540;30;1274;-93
2022/05/22 01:45:04;;;;;;;;;;;26.90;48.30;;;;;;648524;30;1343;-87
2022/05/22 01:45:26;;;;;;;;;;;27.00;48.50;;;;;;650336;30;1191;-91
2022/05/22 01:45:46;;;;;;;;;;;26.90;48.30;;;;;;650335;30;862;-91
2022/05/22 01:46:07;;;;;;;;;;;26.90;48.60;;;;;;650712;30;728;-91
2022/05/22 01:46:28;;;;;;;;;;;26.90;49.30;;;;;;652643;30;1384;-86
2022/05/22 01:46:49;;;;;;;;;;;27.00;48.60;;;;;;652268;30;1448;-91
2022/05/22 01:47:09;;;;;;;;;;;26.90;49.20;;;;;;650296;30;1222;-94
2022/05/22 01:47:34;;;;;;;;;;;26.90;47.90;;;;;;650358;30;1393;-88
2022/05/22 01:47:55;;;;;;;;;;;27.00;48.20;;;;;;650304;30;1165;-88
2022/05/22 01:48:15;;;;;;;;;;;26.90;48.70;;;;;;649552;30;1096;-88
2022/05/22 01:48:36;;;;;;;;;;;26.90;48.50;;;;;;648600;30;972;-87
2022/05/22 01:48:57;;;;;;;;;;;27.00;48.60;;;;;;651595;30;1171;-85
2022/05/22 01:49:17;;;;;;;;;;;26.90;48.40;;;;;;658547;30;873;-89
2022/05/22 01:49:38;;;;;;;;;;;27.00;48.60;;;;;;660344;29;852;-89
2022/05/22 01:49:58;;;;;;;;;;;26.90;48.30;;;;;;662609;29;844;-87
2022/05/22 01:50:20;;;;;;;;;;;26.90;48.90;;;;;;662705;29;857;-92
2022/05/22 01:50:42;;;;;;;;;;;27.60;49.50;;;;;;662534;29;1349;-86
2022/05/22 01:51:04;;;;;;;;;;;26.90;47.50;;;;;;662524;29;1313;-90
2022/05/22 01:51:26;;;;;;;;;;;26.90;47.20;;;;;;662571;29;1372;-89
2022/05/22 01:51:46;;;;;;;;;;;26.90;47.10;;;;;;662646;29;1091;-88
2022/05/22 01:52:07;;;;;;;;;;;27.00;47.70;;;;;;659929;30;1362;-88
2022/05/22 01:52:28;;;;;;;;;;;26.90;48.20;;;;;;659442;30;1179;-92
2022/05/22 01:52:49;;;;;;;;;;;26.90;47.70;;;;;;657598;30;842;-87
2022/05/22 01:53:10;;;;;;;;;;;26.90;46.70;;;;;;655391;30;1215;-90
2022/05/22 01:53:30;;;;;;;;;;;26.90;47.40;;;;;;655442;30;1195;-90
2022/05/22 01:53:51;;;;;;;;;;;26.90;47.90;;;;;;655554;30;1204;-87
2022/05/22 01:54:11;;;;;;;;;;;26.20;47.60;;;;;;657493;30;1154;-91
2022/05/22 01:54:32;;;;;;;;;;;26.90;47.90;;;;;;657595;30;1206;-88
2022/05/22 01:54:53;;;;;;;;;;;26.90;48.60;;;;;;657937;30;1023;-89
2022/05/22 01:55:13;;;;;;;;;;;26.90;47.10;;;;;;660119;30;750;-87
2022/05/22 01:55:34;;;;;;;;;;;26.90;47.90;;;;;;660051;30;1297;-89
2022/05/22 01:55:54;;;;;;;;;;;26.90;48.20;;;;;;660210;30;1047;-91
2022/05/22 01:56:15;;;;;;;;;;;26.90;48.60;;;;;;660125;30;1160;-87
2022/05/22 01:56:36;;;;;;;;;;;27.00;49.30;;;;;;659887;29;1912;-89
2022/05/22 01:56:56;;;;;;;;;;;26.90;47.90;;;;;;662534;29;1093;-89
2022/05/22 01:57:18;;;;;;;;;;;26.90;49.30;;;;;;662441;29;1254;-90
2022/05/22 01:57:38;;;;;;;;;;;26.90;48.80;;;;;;660072;30;861;-87
2022/05/22 01:57:59;;;;;;;;;;;26.90;49.00;;;;;;660035;30;818;-87
2022/05/22 01:58:19;;;;;;;;;;;27.00;49.00;;;;;;660109;30;1136;-89
2022/05/22 01:58:40;;;;;;;;;;;26.90;48.40;;;;;;660036;30;1529;-89
2022/05/22 01:59:01;;;;;;;;;;;26.90;48.80;;;;;;657816;30;1226;-88
2022/05/22 01:59:22;;;;;;;;;;;26.90;48.60;;;;;;657586;30;1122;-88
2022/05/22 01:59:42;;;;;;;;;;;26.90;48.60;;;;;;657656;30;758;-86
2022/05/22 02:00:04;;;;;;;;;;;26.90;48.40;;;;;;654985;30;1247;-85
2022/05/22 02:00:26;;;;;;;;;;;26.90;48.10;;;;;;655239;30;826;-89
2022/05/22 02:00:46;;;;;;;;;;;26.90;48.00;;;;;;655698;30;1345;-89
2022/05/22 02:01:08;;;;;;;;;;;26.90;47.90;;;;;;658143;30;1248;-87
2022/05/22 02:01:29;;;;;;;;;;;26.90;48.00;;;;;;659933;30;1142;-85
2022/05/22 02:01:49;;;;;;;;;;;26.90;48.30;;;;;;660094;30;908;-89
2022/05/22 02:02:10;;;;;;;;;;;26.90;49.00;;;;;;659966;30;1210;-90
2022/05/22 02:02:30;;;;;;;;;;;26.90;47.90;;;;;;659938;30;1349;-86
2022/05/22 02:02:53;;;;;;;;;;;26.90;48.10;;;;;;659780;30;966;-91
2022/05/22 02:03:14;;;;;;;;;;;26.90;47.50;;;;;;658001;30;1393;-87
2022/05/22 02:03:34;;;;;;;;;;;26.90;48.30;;;;;;660156;30;1311;-86
2022/05/22 02:03:55;;;;;;;;;;;26.90;48.20;;;;;;660146;30;798;-86
2022/05/22 02:04:15;;;;;;;;;;;26.90;48.60;;;;;;661068;29;814;-91
2022/05/22 02:04:36;;;;;;;;;;;26.90;48.60;;;;;;662439;29;797;-91
2022/05/22 02:04:57;;;;;;;;;;;26.90;49.20;;;;;;662754;29;1102;-87
2022/05/22 02:05:18;;;;;;;;;;;27.00;48.60;;;;;;662731;29;1226;-87
2022/05/22 02:05:39;;;;;;;;;;;26.90;49.50;;;;;;662912;29;1301;-90
2022/05/22 02:05:59;;;;;;;;;;;26.90;49.40;;;;;;662651;29;1361;-90
2022/05/22 02:06:20;;;;;;;;;;;26.90;50.20;;;;;;663012;29;901;-88
2022/05/22 02:08:19;;;;;;;;;;;26.90;50.60;;;;;;662827;29;896;-85
2022/05/22 02:08:19;;;;;;;;;;;26.90;48.80;;;;;;660359;30;584;-85
2022/05/22 02:08:39;;;;;;;;;;;26.90;47.90;;;;;;662953;29;1285;-89
2022/05/22 02:09:00;;;;;;;;;;;26.90;47.70;;;;;;663054;29;1345;-88
2022/05/22 02:09:20;;;;;;;;;;;26.90;47.80;;;;;;662777;29;1186;-90
2022/05/22 02:09:41;;;;;;;;;;;26.90;47.70;;;;;;662611;29;873;-85
2022/05/22 02:10:02;;;;;;;;;;;26.90;47.60;;;;;;662577;29;856;-87
2022/05/22 02:10:24;;;;;;;;;;;26.80;47.60;;;;;;662429;29;1003;-87
2022/05/22 02:10:55;;;;;;;;;;;26.90;47.60;;;;;;660530;30;907;-93
2022/05/22 02:11:16;;;;;;;;;;;26.90;47.80;;;;;;662222;29;1307;-87
2022/05/22 02:11:36;;;;;;;;;;;26.90;48.50;;;;;;663004;29;825;-89
2022/05/22 02:11:57;;;;;;;;;;;26.90;49.90;;;;;;662829;29;1325;-87
2022/05/22 02:12:17;;;;;;;;;;;26.80;49.50;;;;;;662618;29;1408;-89
2022/05/22 02:12:38;;;;;;;;;;;26.90;52.90;;;;;;662504;29;1234;-93
2022/05/22 02:12:58;;;;;;;;;;;26.90;51.10;;;;;;662627;29;1349;-89
2022/05/22 02:13:20;;;;;;;;;;;26.90;49.00;;;;;;661023;30;790;-86
2022/05/22 02:13:45;;;;;;;;;;;26.90;48.70;;;;;;660885;30;1228;-88